Terminal Aerodrome Forecast
Issued by NWS

Current Version | Previous Version | Graphics & Text | Print | Product List | Glossary On
Versions: 1 2 3 4 5 6 7 8 9 10 11 12 13 14 15 16 17 18 19 20 21 22
000
FTUS41 KPBZ 191000 AAB
TAFHLG
TAF AMD
KHLG 191005Z 1910/2006 14005KT 4SM -SHRA BR SCT006 OVC020
      TEMPO 1910/1912 BKN006
     FM191200 15005KT 3SM -SHRA BR OVC015
     FM191900 16005KT P6SM VCSH BKN035=

USA.gov is the U.S. government's official web portal to all federal, state and local government web resources and services.